Brightwaters, New York
Current Conditions -  °F | °C
As of 7:53 PM on Thursday 27 Nov 2014 (Local Time) from KFRG Reporting Station
Overcast Overcast  
Wind Chill: 33°   Ceiling: 2000
Heat Index: 38°   Visibility: 10mi
Dew Point: 30°   Wind: 7mph
Humidity: 73%   Direction: 330°NNW
Pressure: 30.03"   Gusts: NA
Location:  40.72°N, 73.27°W
Report Text: KFRG 280053Z 33006KT 10SM OVC020 03/M01 A3003 RMK AO2 SLP169 T00331011
Loading
Personal Weather Stations






























Interactive Weather Map New forecast layout! Learn more

10-Day Weather Forecast

Advertisements
Track Severe Weather on mobile